Time;durP1;ratioP1;P1;durP2;ratioP2;P2;SDS_P1;SDS_P2;PMS_P1;PMS_P2;Temp;Humidity;BMP_temperature;BMP_pressure;BME280_temperature;BME280_humidity;BME280_pressure;Samples;Min_cycle;Max_cycle;Signal;HPM_P1;HPM_P2
2023/07/01 00:01:09;;;;;;;26.03;19.13;;;;;;;;;;5013981;28;20193;-70
2023/07/01 00:04:13;;;;;;;32.00;19.63;;;;;;;;;;5013425;28;20192;-70
2023/07/01 00:07:17;;;;;;;28.90;18.47;;;;;;;;;;5013673;28;20196;-70
2023/07/01 00:10:22;;;;;;;30.47;18.83;;;;;;;;;;5013694;28;20197;-70
2023/07/01 00:13:27;;;;;;;27.30;19.53;;;;;;;;;;5013637;28;20652;-70
2023/07/01 00:16:31;;;;;;;30.57;19.63;;;;;;;;;;5013077;28;20185;-70
2023/07/01 00:19:35;;;;;;;33.53;19.30;;;;;;;;;;5013651;28;20208;-70
2023/07/01 00:22:40;;;;;;;26.47;18.50;;;;;;;;;;5012684;28;20224;-70
2023/07/01 00:25:44;;;;;;;26.17;18.33;;;;;;;;;;5015157;28;20189;-69
2023/07/01 00:28:48;;;;;;;26.43;18.63;;;;;;;;;;5017773;28;20671;-70
2023/07/01 00:31:52;;;;;;;26.20;18.90;;;;;;;;;;5016192;28;20714;-70
2023/07/01 00:34:56;;;;;;;25.10;18.23;;;;;;;;;;5005232;28;20188;-70
2023/07/01 00:38:01;;;;;;;25.80;18.33;;;;;;;;;;5016627;28;20189;-70
2023/07/01 00:41:05;;;;;;;25.97;18.20;;;;;;;;;;5017177;28;20201;-70
2023/07/01 00:44:08;;;;;;;26.73;17.90;;;;;;;;;;5016352;28;20201;-70
2023/07/01 00:47:13;;;;;;;25.10;17.53;;;;;;;;;;5016642;28;20643;-70
2023/07/01 00:50:18;;;;;;;25.83;17.97;;;;;;;;;;5017317;28;20182;-71
2023/07/01 00:53:22;;;;;;;30.63;17.63;;;;;;;;;;5016004;28;20220;-70
2023/07/01 00:56:27;;;;;;;25.77;18.60;;;;;;;;;;5016920;28;20185;-70
2023/07/01 00:59:32;;;;;;;25.13;17.27;;;;;;;;;;5015844;28;20216;-70
2023/07/01 01:03:37;;;;;;;26.07;16.67;;;;;;;;;;5015729;28;20228;-70
2023/07/01 01:06:46;;;;;;;26.27;17.60;;;;;;;;;;5009292;28;20698;-70
2023/07/01 01:09:55;;;;;;;24.03;16.47;;;;;;;;;;5015822;28;20565;-70
2023/07/01 01:13:03;;;;;;;28.03;17.03;;;;;;;;;;5016046;28;20560;-70
2023/07/01 01:16:08;;;;;;;24.50;15.57;;;;;;;;;;5004616;28;20536;-71
2023/07/01 01:19:25;;;;;;;23.90;16.03;;;;;;;;;;5016158;28;20216;-70
2023/07/01 01:22:34;;;;;;;21.63;15.27;;;;;;;;;;5016311;28;20224;-70
2023/07/01 01:25:52;;;;;;;19.13;14.23;;;;;;;;;;5004405;28;20189;-70
2023/07/01 01:28:57;;;;;;;25.63;16.60;;;;;;;;;;5015523;28;20180;-70
2023/07/01 01:32:01;;;;;;;25.43;14.80;;;;;;;;;;5015330;28;20743;-70
2023/07/01 01:35:06;;;;;;;19.37;12.77;;;;;;;;;;5015760;28;20188;-70
2023/07/01 01:38:17;;;;;;;24.03;14.53;;;;;;;;;;5014891;28;20192;-70
2023/07/01 01:41:28;;;;;;;20.60;14.03;;;;;;;;;;5015613;28;20212;-69
2023/07/01 01:44:46;;;;;;;18.47;12.97;;;;;;;;;;5003866;28;20664;-70
2023/07/01 01:47:51;;;;;;;18.93;13.63;;;;;;;;;;5015315;28;20204;-70
2023/07/01 01:50:57;;;;;;;19.83;13.20;;;;;;;;;;5015389;28;20200;-70
2023/07/01 01:54:04;;;;;;;16.63;12.47;;;;;;;;;;5014975;28;20200;-70
2023/07/01 01:57:09;;;;;;;22.83;12.83;;;;;;;;;;5015614;28;20213;-70
2023/07/01 02:00:13;;;;;;;18.57;12.43;;;;;;;;;;5015537;28;20216;-70
2023/07/01 02:03:21;;;;;;;16.93;12.23;;;;;;;;;;5014697;28;20228;-70
2023/07/01 02:06:25;;;;;;;18.87;12.80;;;;;;;;;;5003745;28;20185;-71
2023/07/01 02:09:29;;;;;;;20.20;13.03;;;;;;;;;;5015040;28;20208;-70
2023/07/01 02:12:34;;;;;;;23.40;14.00;;;;;;;;;;5003485;28;20722;-70
2023/07/01 02:15:38;;;;;;;18.50;12.03;;;;;;;;;;5014705;28;20192;-70
2023/07/01 02:18:42;;;;;;;20.13;13.43;;;;;;;;;;5003522;28;20197;-70
2023/07/01 02:21:47;;;;;;;21.67;12.63;;;;;;;;;;5015511;28;20270;-70
2023/07/01 02:24:50;;;;;;;17.80;12.70;;;;;;;;;;5003531;28;20188;-70
2023/07/01 02:27:55;;;;;;;18.67;13.07;;;;;;;;;;5003093;28;20193;-70
2023/07/01 02:30:59;;;;;;;20.27;12.53;;;;;;;;;;5003109;28;20189;-70
2023/07/01 02:34:03;;;;;;;16.80;11.93;;;;;;;;;;5025875;23;20244;-74
2023/07/01 02:37:07;;;;;;;20.50;13.37;;;;;;;;;;5015634;28;20180;-74
2023/07/01 02:40:11;;;;;;;17.80;12.03;;;;;;;;;;5015097;28;20208;-74
2023/07/01 02:43:16;;;;;;;16.73;11.80;;;;;;;;;;5014089;28;20224;-73
2023/07/01 02:46:20;;;;;;;16.07;11.53;;;;;;;;;;5018453;28;20189;-74
2023/07/01 02:49:25;;;;;;;18.53;12.17;;;;;;;;;;5018906;28;20184;-74
2023/07/01 02:52:30;;;;;;;20.50;12.73;;;;;;;;;;5019513;28;20224;-74
2023/07/01 02:55:35;;;;;;;16.03;12.03;;;;;;;;;;5019385;28;20655;-74
2023/07/01 02:58:39;;;;;;;16.57;11.80;;;;;;;;;;5007318;28;20193;-74
2023/07/01 03:01:44;;;;;;;16.60;11.63;;;;;;;;;;5019821;28;20220;-73
2023/07/01 03:04:48;;;;;;;21.27;12.33;;;;;;;;;;5018394;28;20212;-74
2023/07/01 03:07:52;;;;;;;16.70;11.73;;;;;;;;;;5007072;28;20536;-74
2023/07/01 03:10:56;;;;;;;17.93;10.83;;;;;;;;;;5019159;28;20183;-74
2023/07/01 03:14:02;;;;;;;15.23;10.37;;;;;;;;;;5017906;28;20193;-73
2023/07/01 03:17:06;;;;;;;14.93;10.37;;;;;;;;;;5018300;28;20540;-73
2023/07/01 03:20:22;;;;;;;17.33;11.10;;;;;;;;;;5018673;28;20220;-73
2023/07/01 03:23:30;;;;;;;14.53;10.23;;;;;;;;;;5017954;28;20192;-73
2023/07/01 03:26:35;;;;;;;14.90;9.90;;;;;;;;;;5018434;28;20196;-73
2023/07/01 03:29:40;;;;;;;14.10;9.80;;;;;;;;;;5017257;28;20174;-74
2023/07/01 03:32:46;;;;;;;14.47;10.03;;;;;;;;;;5017360;28;20217;-74
2023/07/01 03:35:51;;;;;;;13.87;9.17;;;;;;;;;;5016776;28;20188;-74
2023/07/01 03:38:58;;;;;;;12.90;9.30;;;;;;;;;;5017250;28;20257;-73
2023/07/01 03:42:01;;;;;;;14.27;9.40;;;;;;;;;;5015809;28;20240;-73
2023/07/01 03:45:07;;;;;;;14.17;9.30;;;;;;;;;;5015839;28;20185;-74
2023/07/01 03:48:11;;;;;;;12.30;8.13;;;;;;;;;;5016199;28;20188;-73
2023/07/01 03:51:16;;;;;;;13.23;9.53;;;;;;;;;;5003895;28;20245;-74
2023/07/01 03:54:20;;;;;;;12.33;8.40;;;;;;;;;;5016146;28;20185;-73
2023/07/01 03:57:24;;;;;;;14.50;8.97;;;;;;;;;;5015313;28;20205;-74
2023/07/01 04:00:29;;;;;;;10.73;8.27;;;;;;;;;;5013512;28;20281;-74
2023/07/01 04:03:34;;;;;;;11.73;8.00;;;;;;;;;;5014998;28;20206;-74
2023/07/01 04:06:39;;;;;;;10.97;8.23;;;;;;;;;;5014794;28;20181;-74
2023/07/01 04:09:43;;;;;;;11.77;7.90;;;;;;;;;;5015252;28;20173;-74
2023/07/01 04:12:47;;;;;;;11.03;7.50;;;;;;;;;;5014529;28;20243;-74
2023/07/01 04:15:51;;;;;;;11.57;7.20;;;;;;;;;;5002739;28;20190;-74
2023/07/01 04:18:56;;;;;;;10.93;8.20;;;;;;;;;;5014313;28;20190;-74
2023/07/01 04:22:00;;;;;;;12.30;8.27;;;;;;;;;;5014400;28;20201;-74
2023/07/01 04:25:08;;;;;;;9.50;7.67;;;;;;;;;;5014908;28;20174;-74
2023/07/01 04:28:13;;;;;;;13.67;7.47;;;;;;;;;;5013757;28;20181;-74
2023/07/01 04:31:18;;;;;;;9.47;7.70;;;;;;;;;;5013555;28;20177;-74
2023/07/01 04:34:22;;;;;;;8.80;7.10;;;;;;;;;;5013629;28;20201;-74
2023/07/01 04:37:26;;;;;;;9.90;7.63;;;;;;;;;;5013589;28;20177;-74
2023/07/01 04:40:30;;;;;;;10.23;8.20;;;;;;;;;;5001839;28;20213;-74
2023/07/01 04:43:35;;;;;;;11.80;7.77;;;;;;;;;;5013267;28;20189;-74
2023/07/01 04:46:39;;;;;;;10.20;7.73;;;;;;;;;;5013565;28;20177;-75
2023/07/01 04:49:43;;;;;;;9.63;7.73;;;;;;;;;;5013428;28;20204;-75
2023/07/01 04:52:48;;;;;;;12.90;8.27;;;;;;;;;;5013642;28;20221;-74
2023/07/01 04:55:52;;;;;;;10.90;7.23;;;;;;;;;;5002205;28;20688;-74
2023/07/01 04:58:56;;;;;;;9.50;8.00;;;;;;;;;;5014189;28;20632;-75
2023/07/01 05:02:00;;;;;;;12.57;7.83;;;;;;;;;;5001675;28;20205;-74
2023/07/01 05:05:05;;;;;;;12.50;8.50;;;;;;;;;;5001537;28;20207;-74
2023/07/01 05:08:09;;;;;;;10.27;7.93;;;;;;;;;;5013735;28;20213;-74
2023/07/01 05:11:13;;;;;;;10.23;7.63;;;;;;;;;;5013762;28;20193;-74
2023/07/01 05:14:18;;;;;;;13.57;7.57;;;;;;;;;;5016071;28;20201;-75
2023/07/01 05:17:22;;;;;;;10.33;7.97;;;;;;;;;;5004695;28;20204;-74
2023/07/01 05:20:26;;;;;;;9.60;7.30;;;;;;;;;;5016162;28;20564;-74
2023/07/01 05:23:30;;;;;;;10.47;7.47;;;;;;;;;;5017015;28;20181;-74
2023/07/01 05:26:34;;;;;;;12.83;7.60;;;;;;;;;;5016794;28;20193;-74
2023/07/01 05:29:39;;;;;;;10.07;7.30;;;;;;;;;;5017002;28;20185;-75
2023/07/01 05:32:43;;;;;;;9.50;7.30;;;;;;;;;;5015660;28;20232;-74
2023/07/01 05:35:47;;;;;;;10.90;7.60;;;;;;;;;;5016684;28;20636;-75
2023/07/01 05:38:51;;;;;;;8.60;7.27;;;;;;;;;;5015646;28;20190;-75
2023/07/01 05:41:56;;;;;;;10.70;6.77;;;;;;;;;;5004429;28;20691;-76
2023/07/01 05:45:00;;;;;;;11.43;6.43;;;;;;;;;;5016002;28;20189;-75
2023/07/01 05:48:05;;;;;;;11.07;6.90;;;;;;;;;;5016772;28;20203;-74
2023/07/01 05:51:10;;;;;;;8.00;6.57;;;;;;;;;;5016467;28;20693;-74
2023/07/01 05:54:14;;;;;;;8.07;6.27;;;;;;;;;;5016503;28;20189;-74
2023/07/01 05:57:18;;;;;;;8.60;6.57;;;;;;;;;;5015778;28;20193;-74
2023/07/01 06:00:22;;;;;;;7.13;5.80;;;;;;;;;;5015725;28;20230;-74
2023/07/01 06:03:27;;;;;;;10.93;6.67;;;;;;;;;;5015496;28;20197;-74
2023/07/01 06:06:31;;;;;;;8.53;6.13;;;;;;;;;;5004227;28;20210;-74
2023/07/01 06:09:35;;;;;;;8.30;6.20;;;;;;;;;;5015130;28;20193;-74
2023/07/01 06:12:39;;;;;;;8.67;6.10;;;;;;;;;;5015875;28;20660;-74
2023/07/01 06:15:43;;;;;;;7.67;5.97;;;;;;;;;;5015041;28;20178;-73
2023/07/01 06:18:47;;;;;;;7.30;6.03;;;;;;;;;;5003698;28;20174;-73
2023/07/01 06:21:51;;;;;;;8.20;5.77;;;;;;;;;;5015358;28;20225;-73
2023/07/01 06:24:56;;;;;;;8.37;5.80;;;;;;;;;;5014815;28;20529;-73
2023/07/01 06:28:00;;;;;;;8.00;6.13;;;;;;;;;;5015786;28;20181;-74
2023/07/01 06:31:04;;;;;;;8.03;6.10;;;;;;;;;;5014790;28;20194;-75
2023/07/01 06:34:13;;;;;;;7.77;6.40;;;;;;;;;;5015300;28;20209;-74
2023/07/01 06:37:18;;;;;;;9.33;6.43;;;;;;;;;;5014886;28;20186;-74
2023/07/01 06:40:22;;;;;;;9.97;7.33;;;;;;;;;;5015594;28;20209;-74
2023/07/01 06:43:26;;;;;;;9.83;7.00;;;;;;;;;;5014770;28;20178;-74
2023/07/01 06:46:30;;;;;;;8.47;6.47;;;;;;;;;;5015859;28;20185;-74
2023/07/01 06:49:34;;;;;;;9.13;7.00;;;;;;;;;;5003764;28;20177;-74
2023/07/01 06:52:38;;;;;;;9.73;6.43;;;;;;;;;;5014955;28;20553;-74
2023/07/01 06:55:42;;;;;;;9.77;6.67;;;;;;;;;;5015733;28;20182;-74
2023/07/01 06:58:47;;;;;;;7.93;6.73;;;;;;;;;;5013980;28;20185;-74
2023/07/01 07:01:51;;;;;;;8.40;6.43;;;;;;;;;;5015046;28;20225;-74
2023/07/01 07:04:55;;;;;;;10.20;7.60;;;;;;;;;;5014669;28;20178;-75
2023/07/01 07:08:00;;;;;;;9.90;6.80;;;;;;;;;;5003357;28;20188;-74
2023/07/01 07:11:04;;;;;;;11.07;7.00;;;;;;;;;;5014459;28;20178;-74
2023/07/01 07:14:08;;;;;;;11.77;7.37;;;;;;;;;;5003356;28;20192;-74
2023/07/01 07:17:12;;;;;;;12.37;7.00;;;;;;;;;;5013945;28;20196;-74
2023/07/01 07:20:17;;;;;;;8.53;6.90;;;;;;;;;;5014330;28;20192;-74
2023/07/01 07:23:22;;;;;;;8.70;6.87;;;;;;;;;;5014743;28;20217;-74
2023/07/01 07:26:26;;;;;;;8.37;6.90;;;;;;;;;;5014340;28;20181;-74
2023/07/01 07:29:36;;;;;;;7.13;6.27;;;;;;;;;;5014157;28;20185;-74
2023/07/01 07:32:41;;;;;;;8.53;6.53;;;;;;;;;;5013450;28;20217;-74
2023/07/01 07:35:46;;;;;;;7.60;6.50;;;;;;;;;;5013398;28;20178;-74
2023/07/01 07:38:50;;;;;;;10.30;7.47;;;;;;;;;;5014130;28;20197;-74
2023/07/01 07:41:54;;;;;;;7.93;6.03;;;;;;;;;;5014001;28;20731;-74
2023/07/01 07:44:58;;;;;;;9.83;6.70;;;;;;;;;;5013857;28;20182;-74
2023/07/01 07:48:02;;;;;;;9.00;6.23;;;;;;;;;;5013277;28;20186;-74
2023/07/01 07:51:05;;;;;;;6.20;5.10;;;;;;;;;;5012997;28;20185;-74
2023/07/01 07:54:10;;;;;;;7.03;5.40;;;;;;;;;;5014371;28;20184;-74
2023/07/01 07:57:15;;;;;;;9.00;5.00;;;;;;;;;;5013062;28;20644;-74
2023/07/01 08:00:19;;;;;;;6.20;4.97;;;;;;;;;;5014342;28;20183;-74
2023/07/01 08:03:23;;;;;;;7.27;4.60;;;;;;;;;;5012724;28;20215;-74
2023/07/01 08:06:27;;;;;;;5.50;4.57;;;;;;;;;;5013171;28;20527;-74
2023/07/01 08:09:32;;;;;;;7.20;4.00;;;;;;;;;;5013667;28;20186;-74
2023/07/01 08:12:36;;;;;;;6.00;4.10;;;;;;;;;;5012973;28;20220;-74
2023/07/01 08:15:41;;;;;;;6.47;4.13;;;;;;;;;;5013917;28;20183;-73
2023/07/01 08:18:45;;;;;;;7.47;3.83;;;;;;;;;;5013830;28;20183;-74
2023/07/01 08:21:49;;;;;;;6.77;3.87;;;;;;;;;;5013723;28;20235;-74
2023/07/01 08:24:53;;;;;;;6.40;3.87;;;;;;;;;;5013632;28;20631;-74
2023/07/01 08:27:58;;;;;;;9.67;3.50;;;;;;;;;;5013878;28;20175;-74
2023/07/01 08:31:04;;;;;;;5.80;3.50;;;;;;;;;;5012994;28;20174;-74
2023/07/01 08:34:08;;;;;;;5.03;3.40;;;;;;;;;;5028119;22;20573;-72
2023/07/01 08:37:12;;;;;;;4.53;2.97;;;;;;;;;;5014041;28;20180;-72
2023/07/01 08:40:16;;;;;;;3.57;3.13;;;;;;;;;;5013373;28;20182;-72
2023/07/01 08:43:24;;;;;;;6.20;3.20;;;;;;;;;;5023556;28;20213;-72
2023/07/01 08:46:29;;;;;;;4.87;3.37;;;;;;;;;;5025589;28;20180;-72
2023/07/01 08:49:34;;;;;;;5.10;3.05;;;;;;;;;;5016842;28;20183;-71
2023/07/01 08:52:52;;;;;;;6.45;3.70;;;;;;;;;;5016673;28;20219;-71
2023/07/01 08:55:56;;;;;;;7.43;3.80;;;;;;;;;;5016764;28;20508;-71
2023/07/01 08:59:01;;;;;;;5.68;2.90;;;;;;;;;;5016865;28;20184;-71
2023/07/01 09:02:06;;;;;;;4.85;2.85;;;;;;;;;;5016477;28;20231;-72
2023/07/01 09:05:10;;;;;;;5.57;2.90;;;;;;;;;;5027695;28;20189;-72
2023/07/01 09:08:14;;;;;;;7.00;3.00;;;;;;;;;;5017019;28;20180;-72
2023/07/01 09:11:19;;;;;;;5.50;2.67;;;;;;;;;;5016053;28;20637;-71
2023/07/01 09:14:23;;;;;;;3.85;2.78;;;;;;;;;;5016693;28;20187;-72
2023/07/01 09:17:31;;;;;;;4.45;3.20;;;;;;;;;;5016621;28;20174;-72
2023/07/01 09:20:36;;;;;;;5.95;3.13;;;;;;;;;;5026776;28;20205;-73
2023/07/01 09:23:40;;;;;;;4.85;3.08;;;;;;;;;;5016168;28;20191;-73
2023/07/01 09:26:52;;;;;;;6.38;3.17;;;;;;;;;;5016584;28;20187;-72
2023/07/01 09:29:56;;;;;;;3.47;2.67;;;;;;;;;;5016594;28;20185;-72
2023/07/01 09:33:11;;;;;;;5.05;3.00;;;;;;;;;;5016284;28;20219;-73
2023/07/01 09:36:23;;;;;;;3.53;2.55;;;;;;;;;;5016253;28;20184;-73
2023/07/01 09:39:34;;;;;;;4.10;2.30;;;;;;;;;;5015322;28;20184;-71
2023/07/01 09:42:55;;;;;;;3.13;2.53;;;;;;;;;;5015752;28;20231;-73
2023/07/01 09:45:59;;;;;;;5.95;2.70;;;;;;;;;;5016370;28;20512;-72
2023/07/01 09:49:03;;;;;;;3.58;2.72;;;;;;;;;;5015820;28;20178;-73
2023/07/01 09:52:07;;;;;;;4.28;2.38;;;;;;;;;;5015117;28;20544;-72
2023/07/01 09:55:11;;;;;;;3.80;2.30;;;;;;;;;;5015120;28;20185;-73
2023/07/01 09:58:15;;;;;;;7.82;2.00;;;;;;;;;;5014513;28;20193;-73
2023/07/01 10:01:19;;;;;;;3.35;2.10;;;;;;;;;;5026171;28;20232;-72
2023/07/01 10:04:28;;;;;;;7.15;2.20;;;;;;;;;;5026077;28;20178;-72
2023/07/01 10:07:32;;;;;;;7.38;1.92;;;;;;;;;;5015638;28;20198;-73
2023/07/01 10:10:36;;;;;;;2.42;1.67;;;;;;;;;;5015308;28;20193;-73
2023/07/01 10:13:44;;;;;;;4.13;2.00;;;;;;;;;;5015780;28;20517;-73
2023/07/01 10:16:49;;;;;;;3.78;1.80;;;;;;;;;;5014935;28;20179;-72
2023/07/01 10:19:54;;;;;;;4.80;1.77;;;;;;;;;;5014525;28;20189;-73
2023/07/01 10:22:58;;;;;;;4.47;1.98;;;;;;;;;;5014207;28;20561;-72
2023/07/01 10:26:37;;;;;;;2.80;1.52;;;;;;;;;;5015630;28;20632;-72
2023/07/01 10:29:55;;;;;;;2.88;1.90;;;;;;;;;;5002854;28;20532;-73
2023/07/01 10:32:59;;;;;;;6.95;1.88;;;;;;;;;;5025456;28;20217;-72
2023/07/01 10:36:07;;;;;;;3.72;1.88;;;;;;;;;;5015064;28;20194;-73
2023/07/01 10:39:32;;;;;;;2.15;1.63;;;;;;;;;;5015337;28;20182;-72
2023/07/01 10:42:37;;;;;;;3.53;1.70;;;;;;;;;;5014950;28;20701;-72
2023/07/01 10:45:42;;;;;;;3.90;1.92;;;;;;;;;;5025486;28;20191;-73
2023/07/01 10:49:04;;;;;;;2.42;1.98;;;;;;;;;;5014810;28;20177;-72
2023/07/01 10:52:09;;;;;;;4.47;2.03;;;;;;;;;;5013682;28;20694;-73
2023/07/01 10:55:39;;;;;;;2.00;1.58;;;;;;;;;;5014791;28;20184;-73
2023/07/01 10:58:43;;;;;;;1.77;1.63;;;;;;;;;;5014961;28;20188;-73
2023/07/01 11:02:01;;;;;;;3.55;1.80;;;;;;;;;;5025018;28;20226;-72
2023/07/01 11:05:07;;;;;;;3.35;1.85;;;;;;;;;;5015089;28;20184;-73
2023/07/01 11:08:12;;;;;;;4.28;2.20;;;;;;;;;;5014380;28;20520;-73
2023/07/01 11:11:27;;;;;;;3.58;2.20;;;;;;;;;;5014260;28;20200;-72
2023/07/01 11:14:36;;;;;;;5.13;2.08;;;;;;;;;;5013618;28;20188;-74
2023/07/01 11:17:51;;;;;;;2.53;2.30;;;;;;;;;;5002321;28;20171;-73
2023/07/01 11:20:55;;;;;;;3.97;2.58;;;;;;;;;;5024847;28;20186;-73
2023/07/01 11:24:09;;;;;;;4.18;2.10;;;;;;;;;;5013515;28;20179;-73
2023/07/01 11:27:13;;;;;;;2.38;1.95;;;;;;;;;;5014352;28;20193;-73
2023/07/01 11:30:30;;;;;;;4.00;2.47;;;;;;;;;;5014137;28;20630;-73
2023/07/01 11:33:34;;;;;;;4.85;2.35;;;;;;;;;;5013879;28;20201;-73
2023/07/01 11:36:42;;;;;;;3.42;2.17;;;;;;;;;;5013807;28;20180;-73
2023/07/01 11:39:46;;;;;;;6.07;2.22;;;;;;;;;;5024598;28;20530;-73
2023/07/01 11:42:50;;;;;;;2.38;2.03;;;;;;;;;;5013791;28;20227;-73
2023/07/01 11:45:54;;;;;;;8.20;2.38;;;;;;;;;;5012744;28;20176;-73
2023/07/01 11:49:15;;;;;;;2.95;2.05;;;;;;;;;;5014133;28;20525;-73
2023/07/01 11:52:24;;;;;;;3.42;1.95;;;;;;;;;;5013387;28;20705;-73
2023/07/01 11:55:34;;;;;;;3.33;2.22;;;;;;;;;;5013507;28;20189;-73
2023/07/01 11:58:48;;;;;;;4.13;2.30;;;;;;;;;;5024213;28;20185;-73
2023/07/01 12:01:52;;;;;;;5.47;2.25;;;;;;;;;;5012643;28;20688;-73
2023/07/01 12:04:57;;;;;;;3.10;2.28;;;;;;;;;;5013408;28;20183;-73
2023/07/01 12:08:01;;;;;;;6.63;2.22;;;;;;;;;;5012917;28;20198;-73
2023/07/01 12:11:15;;;;;;;5.70;2.20;;;;;;;;;;5013186;28;20189;-73
2023/07/01 12:14:21;;;;;;;5.40;2.28;;;;;;;;;;5013647;28;20176;-73
2023/07/01 12:17:30;;;;;;;4.85;2.65;;;;;;;;;;5013682;28;20181;-73
2023/07/01 12:20:35;;;;;;;3.60;2.17;;;;;;;;;;5013744;28;20535;-73
2023/07/01 12:23:41;;;;;;;3.13;2.70;;;;;;;;;;5016453;28;20220;-73
2023/07/01 12:26:47;;;;;;;7.03;2.20;;;;;;;;;;5016345;28;20675;-73
2023/07/01 12:29:51;;;;;;;2.90;2.10;;;;;;;;;;5016784;28;20199;-73
2023/07/01 12:32:55;;;;;;;3.35;2.25;;;;;;;;;;5017378;28;20218;-73
2023/07/01 12:36:00;;;;;;;2.75;2.20;;;;;;;;;;5016988;28;20639;-73
2023/07/01 12:39:07;;;;;;;2.30;1.60;;;;;;;;;;5017239;28;20176;-73
2023/07/01 12:42:12;;;;;;;2.80;2.33;;;;;;;;;;5016965;28;20224;-72
2023/07/01 12:45:16;;;;;;;2.75;2.08;;;;;;;;;;5016298;28;20640;-73
2023/07/01 12:48:21;;;;;;;4.30;1.70;;;;;;;;;;5016756;28;20192;-73
2023/07/01 12:51:25;;;;;;;4.28;2.10;;;;;;;;;;5016225;28;20214;-72
2023/07/01 12:54:33;;;;;;;4.82;1.90;;;;;;;;;;5016623;28;20173;-73
2023/07/01 12:57:38;;;;;;;3.90;2.10;;;;;;;;;;5016498;28;20204;-72
2023/07/01 13:00:42;;;;;;;2.47;2.05;;;;;;;;;;5016813;28;20181;-73
2023/07/01 13:03:47;;;;;;;2.80;1.85;;;;;;;;;;5016401;28;20220;-72
2023/07/01 13:06:51;;;;;;;3.47;2.60;;;;;;;;;;5016359;28;20201;-73
2023/07/01 13:09:58;;;;;;;3.78;2.20;;;;;;;;;;5015837;28;20201;-73
2023/07/01 13:13:02;;;;;;;3.17;2.63;;;;;;;;;;5015872;28;20210;-73
2023/07/01 13:16:33;;;;;;;3.55;2.08;;;;;;;;;;5016777;28;20181;-72
2023/07/01 13:19:37;;;;;;;3.45;2.20;;;;;;;;;;5015634;28;20185;-72
2023/07/01 13:22:40;;;;;;;4.28;2.35;;;;;;;;;;5003868;28;20225;-73
2023/07/01 13:25:44;;;;;;;3.47;2.38;;;;;;;;;;5016421;28;20173;-73
2023/07/01 13:28:49;;;;;;;2.63;2.42;;;;;;;;;;5015317;28;20521;-72
2023/07/01 13:31:55;;;;;;;2.78;2.38;;;;;;;;;;5015347;28;20220;-73
2023/07/01 13:35:01;;;;;;;2.55;2.20;;;;;;;;;;5015931;28;20199;-73
2023/07/01 13:38:07;;;;;;;3.92;2.60;;;;;;;;;;5016252;28;20188;-73
2023/07/01 13:41:14;;;;;;;3.60;2.75;;;;;;;;;;5015277;28;20192;-73
2023/07/01 13:44:20;;;;;;;2.97;2.67;;;;;;;;;;5015988;28;20561;-72
2023/07/01 13:47:44;;;;;;;4.85;2.80;;;;;;;;;;5016311;28;20185;-72
2023/07/01 13:50:51;;;;;;;3.17;2.72;;;;;;;;;;5015725;28;20182;-72
2023/07/01 13:53:54;;;;;;;4.10;2.95;;;;;;;;;;5015955;28;20170;-73
2023/07/01 13:57:00;;;;;;;6.35;3.63;;;;;;;;;;5014981;28;20201;-73
2023/07/01 14:00:14;;;;;;;5.80;4.20;;;;;;;;;;5015781;28;20201;-73
2023/07/01 14:03:21;;;;;;;4.93;3.55;;;;;;;;;;5015385;28;20229;-72
2023/07/01 14:06:30;;;;;;;4.40;3.60;;;;;;;;;;5015164;28;20182;-73
2023/07/01 14:09:36;;;;;;;4.95;3.35;;;;;;;;;;5015222;28;20525;-73
2023/07/01 14:12:40;;;;;;;8.02;4.85;;;;;;;;;;5014568;28;20209;-73
2023/07/01 14:15:48;;;;;;;6.65;4.00;;;;;;;;;;5015028;28;20176;-73
2023/07/01 14:18:53;;;;;;;5.22;3.92;;;;;;;;;;5014799;28;20177;-72
2023/07/01 14:21:59;;;;;;;6.05;4.00;;;;;;;;;;5026406;28;20708;-73
2023/07/01 14:25:06;;;;;;;5.13;4.28;;;;;;;;;;5015404;28;20525;-73
2023/07/01 14:28:11;;;;;;;8.73;4.60;;;;;;;;;;5015341;28;20519;-73
2023/07/01 14:31:32;;;;;;;4.95;4.45;;;;;;;;;;5025533;28;20181;-72
2023/07/01 14:34:40;;;;;;;6.07;3.85;;;;;;;;;;5029202;22;20232;-73
2023/07/01 14:37:47;;;;;;;6.47;4.07;;;;;;;;;;5015489;28;20198;-73
2023/07/01 14:40:51;;;;;;;5.68;4.35;;;;;;;;;;5025837;28;20525;-72
2023/07/01 14:44:01;;;;;;;7.88;5.07;;;;;;;;;;4995637;28;20214;-73
2023/07/01 14:47:05;;;;;;;6.05;4.55;;;;;;;;;;5006225;28;20194;-73
2023/07/01 14:50:10;;;;;;;5.80;4.72;;;;;;;;;;4995321;28;20198;-73
2023/07/01 14:53:14;;;;;;;6.85;5.00;;;;;;;;;;4995514;28;20218;-73
2023/07/01 14:56:21;;;;;;;10.93;5.57;;;;;;;;;;4995609;28;20201;-72
2023/07/01 14:59:25;;;;;;;8.95;5.05;;;;;;;;;;4995115;28;20216;-73
2023/07/01 15:02:29;;;;;;;6.18;5.00;;;;;;;;;;4995101;28;20214;-73
2023/07/01 15:05:34;;;;;;;5.82;4.82;;;;;;;;;;4995285;28;20206;-73
2023/07/01 15:08:40;;;;;;;7.82;5.20;;;;;;;;;;4995573;28;20185;-72
2023/07/01 15:11:44;;;;;;;7.93;4.47;;;;;;;;;;4994947;28;20564;-72
2023/07/01 15:14:48;;;;;;;6.55;5.03;;;;;;;;;;4995110;28;20516;-72
2023/07/01 15:17:52;;;;;;;6.57;4.60;;;;;;;;;;4995551;28;20179;-73
2023/07/01 15:20:56;;;;;;;5.38;4.60;;;;;;;;;;4994121;28;20192;-72
2023/07/01 15:24:00;;;;;;;7.43;5.03;;;;;;;;;;4994734;28;20220;-73
2023/07/01 15:27:05;;;;;;;7.95;5.22;;;;;;;;;;4994779;28;20185;-72
2023/07/01 15:30:10;;;;;;;5.15;4.30;;;;;;;;;;4993710;28;20176;-73
2023/07/01 15:33:15;;;;;;;4.65;3.85;;;;;;;;;;4993683;28;20215;-73
2023/07/01 15:36:19;;;;;;;6.05;4.60;;;;;;;;;;4994119;28;20180;-73
2023/07/01 15:39:23;;;;;;;8.40;4.43;;;;;;;;;;4993653;28;20183;-72
2023/07/01 15:42:27;;;;;;;5.40;4.03;;;;;;;;;;5004692;28;20693;-73
2023/07/01 15:45:31;;;;;;;6.80;4.38;;;;;;;;;;4993613;28;20176;-72
2023/07/01 15:48:35;;;;;;;5.65;4.57;;;;;;;;;;4994458;28;20180;-73
2023/07/01 15:51:40;;;;;;;4.72;3.88;;;;;;;;;;4994281;28;20212;-73
2023/07/01 15:54:44;;;;;;;8.93;4.55;;;;;;;;;;4994014;28;20171;-73
2023/07/01 15:57:48;;;;;;;7.13;4.50;;;;;;;;;;4993705;28;20639;-72
2023/07/01 16:00:53;;;;;;;5.50;4.38;;;;;;;;;;4993407;28;20545;-73
2023/07/01 16:03:57;;;;;;;6.03;4.32;;;;;;;;;;4993753;28;20689;-73
2023/07/01 16:07:09;;;;;;;12.07;4.25;;;;;;;;;;4993895;28;20179;-72
2023/07/01 16:10:13;;;;;;;5.22;4.00;;;;;;;;;;4993386;28;20197;-72
2023/07/01 16:13:27;;;;;;;4.97;4.07;;;;;;;;;;4992871;28;20225;-72
2023/07/01 16:16:31;;;;;;;7.05;3.95;;;;;;;;;;4993641;28;20189;-72
2023/07/01 16:19:41;;;;;;;4.82;3.80;;;;;;;;;;4993646;28;20198;-72
2023/07/01 16:22:45;;;;;;;4.53;3.63;;;;;;;;;;5003996;28;20213;-72
2023/07/01 16:25:49;;;;;;;5.38;3.95;;;;;;;;;;4994141;28;20656;-72
2023/07/01 16:28:54;;;;;;;5.90;3.47;;;;;;;;;;4993486;28;20205;-72
2023/07/01 16:31:58;;;;;;;5.25;3.58;;;;;;;;;;4993384;28;20221;-72
2023/07/01 16:35:06;;;;;;;6.03;3.58;;;;;;;;;;4992712;28;20659;-72
2023/07/01 16:38:27;;;;;;;6.50;3.63;;;;;;;;;;4993067;28;20189;-73
2023/07/01 16:41:31;;;;;;;5.07;3.40;;;;;;;;;;4993499;28;20561;-72
2023/07/01 16:44:35;;;;;;;4.40;3.20;;;;;;;;;;4994096;28;20212;-72
2023/07/01 16:47:40;;;;;;;4.50;3.50;;;;;;;;;;4993368;28;20183;-72
2023/07/01 16:50:56;;;;;;;4.30;3.40;;;;;;;;;;4993779;28;20369;-72
2023/07/01 16:54:10;;;;;;;5.67;2.90;;;;;;;;;;5003844;28;20525;-73
2023/07/01 16:57:14;;;;;;;7.07;3.50;;;;;;;;;;4993263;28;20546;-73
2023/07/01 17:00:25;;;;;;;5.90;3.17;;;;;;;;;;4993316;28;20181;-73
2023/07/01 17:03:29;;;;;;;4.90;2.67;;;;;;;;;;5003915;28;20220;-72
2023/07/01 17:06:46;;;;;;;7.33;3.30;;;;;;;;;;4993616;28;20179;-73
2023/07/01 17:09:50;;;;;;;5.13;3.20;;;;;;;;;;4997334;28;20182;-73
2023/07/01 17:12:55;;;;;;;6.13;3.03;;;;;;;;;;5011199;22;20234;-73
2023/07/01 17:16:01;;;;;;;3.37;2.70;;;;;;;;;;5016936;28;20176;-72
2023/07/01 17:19:05;;;;;;;3.57;2.73;;;;;;;;;;5016223;28;20632;-72
2023/07/01 17:22:10;;;;;;;7.30;2.60;;;;;;;;;;5017203;28;20217;-72
2023/07/01 17:25:14;;;;;;;6.20;2.70;;;;;;;;;;5017477;28;20200;-72
2023/07/01 17:28:18;;;;;;;6.63;2.80;;;;;;;;;;5015695;28;20200;-72
2023/07/01 17:31:22;;;;;;;4.77;2.67;;;;;;;;;;5016458;28;20223;-73
2023/07/01 17:34:35;;;;;;;3.87;2.50;;;;;;;;;;5016742;28;20639;-72
2023/07/01 17:37:39;;;;;;;3.73;2.70;;;;;;;;;;5016431;28;20200;-73
2023/07/01 17:40:43;;;;;;;3.83;2.47;;;;;;;;;;5016698;28;20179;-72
2023/07/01 17:43:47;;;;;;;5.67;2.63;;;;;;;;;;5016569;28;20207;-73
2023/07/01 17:46:52;;;;;;;6.00;2.57;;;;;;;;;;5016232;28;20179;-73
2023/07/01 17:49:56;;;;;;;3.43;2.40;;;;;;;;;;5016264;28;20185;-73
2023/07/01 17:53:00;;;;;;;5.20;2.83;;;;;;;;;;5015803;28;20222;-73
2023/07/01 17:56:04;;;;;;;4.17;2.57;;;;;;;;;;5015169;28;20181;-72
2023/07/01 17:59:08;;;;;;;6.53;2.60;;;;;;;;;;5016264;28;20187;-73
2023/07/01 18:02:13;;;;;;;3.90;2.70;;;;;;;;;;5015603;28;20221;-73
2023/07/01 18:05:17;;;;;;;3.97;2.50;;;;;;;;;;5015281;28;20223;-73
2023/07/01 18:08:21;;;;;;;3.03;2.23;;;;;;;;;;5014896;28;20633;-73
2023/07/01 18:11:25;;;;;;;3.43;2.37;;;;;;;;;;5015655;28;20221;-73
2023/07/01 18:14:30;;;;;;;4.77;2.70;;;;;;;;;;5015440;28;20242;-74
2023/07/01 18:17:34;;;;;;;4.93;2.73;;;;;;;;;;5015740;28;20178;-73
2023/07/01 18:20:38;;;;;;;3.70;2.40;;;;;;;;;;5015337;28;20192;-73
2023/07/01 18:23:42;;;;;;;3.70;2.77;;;;;;;;;;5003476;28;20185;-73
2023/07/01 18:26:48;;;;;;;4.87;2.90;;;;;;;;;;5015270;28;20211;-72